createdAt,value
2018-06-09T00:02:49.714Z,94.83
2018-06-09T00:07:53.813Z,107.07
2018-06-09T00:12:57.661Z,100.05
2018-06-09T00:18:01.922Z,103.90
2018-06-09T00:23:05.769Z,111.63
2018-06-09T00:28:09.765Z,105.40
2018-06-09T00:33:13.583Z,102.78
2018-06-09T00:38:17.446Z,111.90
2018-06-09T00:43:21.288Z,100.77
2018-06-09T00:48:25.426Z,100.17
2018-06-09T00:53:29.862Z,106.03
2018-06-09T00:58:33.788Z,109.50
2018-06-09T01:03:37.657Z,112.92
2018-06-09T01:08:41.759Z,104.50
2018-06-09T01:13:45.833Z,109.23
2018-06-09T01:18:49.700Z,107.73
2018-06-09T01:23:53.801Z,118.67
2018-06-09T01:28:57.970Z,118.97
2018-06-09T01:34:02.042Z,119.20
2018-06-09T01:39:08.032Z,118.03
2018-06-09T01:44:12.145Z,104.90
2018-06-09T01:49:16.027Z,105.13
2018-06-09T01:54:20.353Z,104.80
2018-06-09T01:59:24.201Z,106.90
2018-06-09T02:04:28.402Z,99.33
2018-06-09T02:09:32.253Z,108.30
2018-06-09T02:14:36.133Z,95.73
2018-06-09T02:19:40.218Z,104.40
2018-06-09T02:24:44.076Z,98.40
2018-06-09T02:29:47.933Z,108.47
2018-06-09T02:34:51.793Z,98.73
2018-06-09T02:39:55.642Z,108.67
2018-06-09T02:44:59.812Z,104.37
2018-06-09T02:50:03.921Z,125.27
2018-06-09T02:55:08.006Z,113.03
2018-06-09T03:00:12.126Z,125.30
2018-06-09T03:05:15.964Z,123.07
2018-06-09T03:10:19.818Z,129.40
2018-06-09T03:15:23.692Z,138.93
2018-06-09T03:20:27.548Z,128.27
2018-06-09T03:25:31.399Z,130.87
2018-06-09T03:30:35.484Z,127.10
2018-06-09T03:35:39.315Z,124.87
2018-06-09T03:40:43.165Z,116.33
2018-06-09T03:45:47.003Z,124.53
2018-06-09T03:50:50.848Z,134.70
2018-06-09T03:55:54.689Z,119.10
2018-06-09T04:00:58.522Z,130.55
2018-06-09T04:06:02.334Z,138.70
2018-06-09T04:11:06.235Z,132.50
2018-06-09T04:16:10.405Z,129.20
2018-06-09T04:21:14.461Z,122.93
2018-06-09T04:26:19.000Z,115.97
2018-06-09T04:31:22.847Z,130.77
2018-06-09T04:36:26.662Z,117.20
2018-06-09T04:41:30.477Z,122.37
2018-06-09T04:46:34.306Z,118.97
2018-06-09T04:51:38.146Z,112.83
2018-06-09T04:56:41.954Z,110.87
2018-06-09T05:01:46.013Z,113.47
2018-06-09T05:06:50.084Z,100.90
2018-06-09T05:11:53.909Z,121.13
2018-06-09T05:16:57.715Z,114.27
2018-06-09T05:22:01.536Z,111.17
2018-06-09T05:27:05.595Z,112.33
2018-06-09T05:32:09.396Z,112.43
2018-06-09T05:37:13.294Z,110.70
2018-06-09T05:42:17.093Z,112.40
2018-06-09T05:47:21.226Z,111.67
2018-06-09T05:52:25.050Z,105.73
2018-06-09T05:57:28.953Z,119.23
2018-06-09T06:02:32.815Z,112.57
2018-06-09T06:07:36.662Z,119.67
2018-06-09T06:12:40.465Z,118.80
2018-06-09T06:17:44.272Z,122.30
2018-06-09T06:22:48.108Z,131.10
2018-06-09T06:27:52.200Z,134.60
2018-06-09T06:32:56.022Z,134.33
2018-06-09T06:37:59.825Z,127.47
2018-06-09T06:43:03.879Z,128.07
2018-06-09T06:48:07.693Z,124.00
2018-06-09T06:53:11.497Z,132.73
2018-06-09T06:58:15.559Z,130.17
2018-06-09T07:03:19.440Z,135.77
2018-06-09T07:08:23.249Z,135.33
2018-06-09T07:13:27.614Z,136.37
2018-06-09T07:18:31.642Z,138.97
2018-06-09T07:23:35.703Z,144.37
2018-06-09T07:28:39.526Z,145.63
2018-06-09T07:33:43.397Z,152.17
2018-06-09T07:38:47.275Z,153.07
2018-06-09T07:43:51.089Z,148.97
2018-06-09T07:48:55.147Z,150.67
2018-06-09T07:53:59.246Z,152.97
2018-06-09T07:59:03.086Z,152.73
2018-06-09T08:04:07.013Z,153.57
2018-06-09T08:09:10.821Z,160.53
2018-06-09T08:14:14.634Z,180.00
2018-06-09T08:19:18.489Z,177.83
2018-06-09T08:24:22.558Z,192.47
2018-06-09T08:29:26.421Z,169.67
2018-06-09T08:34:30.230Z,170.40
2018-06-09T08:39:34.077Z,172.20
2018-06-09T08:44:37.897Z,156.40
2018-06-09T08:49:41.954Z,151.13
2018-06-09T08:54:46.020Z,142.63
2018-06-09T08:59:49.829Z,136.17
2018-06-09T09:04:53.633Z,132.43
2018-06-09T09:09:57.445Z,119.97
2018-06-09T09:15:01.265Z,125.30
2018-06-09T09:20:05.414Z,116.63
2018-06-09T09:25:09.349Z,118.03
2018-06-09T09:30:13.440Z,104.73
2018-06-09T09:35:17.265Z,96.40
2018-06-09T09:40:21.098Z,104.73
2018-06-09T09:45:24.915Z,96.20
2018-06-09T09:50:28.814Z,93.90
2018-06-09T09:55:32.629Z,89.62
2018-06-09T10:00:38.306Z,88.20
2018-06-09T10:05:42.121Z,89.30
2018-06-09T10:10:45.969Z,91.43
2018-06-09T10:15:49.812Z,89.73
2018-06-09T10:20:53.640Z,89.00
2018-06-09T10:25:57.445Z,91.73
2018-06-09T10:31:01.239Z,92.00
2018-06-09T10:36:05.325Z,82.77
2018-06-09T10:41:10.462Z,82.37
2018-06-09T10:46:14.514Z,90.50
2018-06-09T10:51:18.562Z,84.80
2018-06-09T10:56:22.399Z,76.10
2018-06-09T11:01:26.222Z,81.83
2018-06-09T11:06:30.037Z,73.37
2018-06-09T11:11:33.865Z,82.90
2018-06-09T11:16:37.693Z,76.17
2018-06-09T11:21:41.542Z,74.47
2018-06-09T11:26:45.400Z,68.43
2018-06-09T11:31:49.233Z,71.33
2018-06-09T11:36:53.074Z,72.33
2018-06-09T11:41:56.876Z,62.37
2018-06-09T11:47:02.665Z,55.33
2018-06-09T11:52:06.799Z,55.10
2018-06-09T11:57:11.228Z,66.07
2018-06-09T12:02:15.055Z,67.23
2018-06-09T12:07:18.973Z,69.70
2018-06-09T12:12:23.030Z,60.23
2018-06-09T12:17:27.083Z,63.73
2018-06-09T12:22:30.907Z,58.00
2018-06-09T12:27:34.745Z,50.87
2018-06-09T12:32:38.783Z,49.87
2018-06-09T12:37:42.920Z,47.67
2018-06-09T12:42:46.951Z,47.73
2018-06-09T12:47:50.974Z,48.23
2018-06-09T12:52:55.018Z,50.23
2018-06-09T12:57:59.058Z,37.37
2018-06-09T13:03:03.758Z,40.63
2018-06-09T13:08:07.830Z,40.20
2018-06-09T13:13:11.670Z,43.53
2018-06-09T13:18:15.472Z,48.33
2018-06-09T13:23:19.290Z,47.70
2018-06-09T13:28:23.490Z,49.23
2018-06-09T13:33:28.129Z,43.83
2018-06-09T13:38:31.983Z,44.90
2018-06-09T13:43:35.813Z,43.30
2018-06-09T13:48:39.622Z,39.70
2018-06-09T13:53:43.421Z,42.37
2018-06-09T13:58:47.254Z,40.47
2018-06-09T14:03:51.342Z,38.23
2018-06-09T14:08:55.390Z,32.10
2018-06-09T14:13:59.220Z,33.07
2018-06-09T14:19:03.106Z,32.37
2018-06-09T14:24:07.178Z,29.03
2018-06-09T14:29:10.969Z,39.90
2018-06-09T14:34:15.322Z,37.20
2018-06-09T14:39:19.461Z,35.27
2018-06-09T14:44:23.260Z,33.40
2018-06-09T14:49:27.311Z,30.83
2018-06-09T14:54:31.359Z,28.77
2018-06-09T14:59:35.189Z,32.87
2018-06-09T15:04:38.985Z,29.87
2018-06-09T15:09:42.789Z,29.53
2018-06-09T15:14:46.594Z,27.80
2018-06-09T15:19:50.425Z,27.87
2018-06-09T15:24:54.249Z,24.60
2018-06-09T15:29:58.311Z,27.80
2018-06-09T15:35:02.478Z,24.57
2018-06-09T15:40:06.283Z,27.33
2018-06-09T15:45:10.090Z,20.63
2018-06-09T15:50:13.894Z,20.20
2018-06-09T15:55:17.705Z,23.60
2018-06-09T16:00:21.768Z,23.07
2018-06-09T16:05:25.822Z,20.90
2018-06-09T16:10:29.635Z,19.93
2018-06-09T16:15:33.553Z,18.30
2018-06-09T16:20:37.357Z,18.07
2018-06-09T16:25:41.174Z,19.33
2018-06-09T16:30:45.004Z,21.70
2018-06-09T16:35:49.077Z,18.50
2018-06-09T16:40:52.869Z,24.27
2018-06-09T16:45:56.777Z,23.30
2018-06-09T16:51:00.582Z,22.53
2018-06-09T16:56:04.466Z,21.47
2018-06-09T17:01:08.548Z,21.83
2018-06-09T17:06:12.682Z,21.73
2018-06-09T17:11:16.490Z,22.80
2018-06-09T17:16:20.375Z,22.93
2018-06-09T17:21:24.174Z,23.20
2018-06-09T17:26:28.257Z,21.60
2018-06-09T17:31:32.094Z,24.10
2018-06-09T17:36:36.148Z,23.13
2018-06-09T17:41:40.000Z,21.77
2018-06-09T17:46:43.756Z,21.97
2018-06-09T17:51:47.815Z,24.07
2018-06-09T17:56:51.849Z,21.43
2018-06-09T18:01:55.664Z,24.03
2018-06-09T18:06:59.469Z,20.90
2018-06-09T18:12:03.305Z,25.13
2018-06-09T18:17:07.129Z,23.57
2018-06-09T18:22:11.183Z,23.60
2018-06-09T18:27:15.029Z,23.97
2018-06-09T18:32:19.077Z,27.13
2018-06-09T18:37:23.120Z,26.60
2018-06-09T18:42:27.730Z,25.27
2018-06-09T18:47:31.589Z,22.50
2018-06-09T18:52:35.384Z,25.47
2018-06-09T18:57:39.475Z,25.25
2018-06-09T19:02:43.312Z,26.73
2018-06-09T19:07:47.355Z,25.77
2018-06-09T19:12:51.150Z,28.07
2018-06-09T19:17:54.961Z,26.47
2018-06-09T19:22:58.791Z,27.00
2018-06-09T19:28:02.786Z,27.97
2018-06-09T19:33:06.891Z,27.23
2018-06-09T19:38:10.690Z,26.50
2018-06-09T19:43:14.498Z,27.03
2018-06-09T19:48:18.558Z,26.30
2018-06-09T19:53:22.351Z,25.93
2018-06-09T19:58:26.181Z,24.03
2018-06-09T20:03:30.269Z,25.80
2018-06-09T20:08:34.338Z,25.13
2018-06-09T20:13:38.378Z,23.57
2018-06-09T20:18:42.426Z,25.77
2018-06-09T20:23:46.458Z,24.53
2018-06-09T20:28:50.497Z,24.70
2018-06-09T20:33:54.310Z,25.10
2018-06-09T20:38:58.397Z,25.73
2018-06-09T20:44:02.582Z,27.10
2018-06-09T20:49:06.650Z,29.20
2018-06-09T20:54:10.450Z,26.60
2018-06-09T20:59:15.240Z,28.37
2018-06-09T21:04:19.366Z,28.87
2018-06-09T21:09:23.190Z,28.47
2018-06-09T21:14:28.075Z,29.77
2018-06-09T21:19:32.069Z,28.33
2018-06-09T21:24:35.866Z,28.90
2018-06-09T21:29:45.077Z,30.10
2018-06-09T21:35:06.212Z,31.03
2018-06-09T21:40:18.306Z,31.90
2018-06-09T21:45:28.362Z,33.67
2018-06-09T21:50:32.222Z,33.47
2018-06-09T21:55:36.305Z,34.53
2018-06-09T22:00:40.452Z,37.87
2018-06-09T22:05:44.542Z,40.73
2018-06-09T22:10:48.372Z,39.45
2018-06-09T22:15:52.226Z,41.92
2018-06-09T22:20:56.078Z,42.57
2018-06-09T22:26:00.774Z,39.60
2018-06-09T22:31:04.630Z,29.30
2018-06-09T22:36:08.445Z,17.23
2018-06-09T22:41:12.310Z,18.03
2018-06-09T22:46:16.151Z,15.73
2018-06-09T22:51:20.206Z,15.73
2018-06-09T22:56:24.010Z,15.30
2018-06-09T23:01:27.941Z,10.40
2018-06-09T23:06:31.752Z,8.10
2018-06-09T23:11:35.794Z,9.57
2018-06-09T23:16:39.597Z,10.50
2018-06-09T23:21:43.401Z,13.43
2018-06-09T23:26:47.466Z,12.73
2018-06-09T23:31:51.268Z,14.20
2018-06-09T23:36:55.144Z,14.83
2018-06-09T23:41:59.058Z,16.27
2018-06-09T23:47:02.857Z,17.03
2018-06-09T23:52:06.669Z,18.17
2018-06-09T23:57:10.726Z,19.13
